Time;durP1;ratioP1;P1;durP2;ratioP2;P2;SDS_P1;SDS_P2;PMS_P1;PMS_P2;Temp;Humidity;BMP_temperature;BMP_pressure;BME280_temperature;BME280_humidity;BME280_pressure;Samples;Min_cycle;Max_cycle;Signal;HPM_P1;HPM_P2
2023/07/30 00:00:13;;;;;;;4.93;2.63;;;;;;;;;;6073296;29;20230;-79
2023/07/30 00:03:17;;;;;;;2.70;2.50;;;;;;;;;;6073772;29;20266;-80
2023/07/30 00:06:21;;;;;;;2.70;2.47;;;;;;;;;;6071934;29;20297;-80
2023/07/30 00:09:25;;;;;;;2.75;2.55;;;;;;;;;;6071889;29;20436;-80
2023/07/30 00:12:29;;;;;;;4.10;2.65;;;;;;;;;;6071356;29;20259;-80
2023/07/30 00:15:35;;;;;;;2.70;2.60;;;;;;;;;;6088330;29;20253;-80
2023/07/30 00:18:39;;;;;;;2.70;2.50;;;;;;;;;;6094626;29;20273;-79
2023/07/30 00:21:46;;;;;;;3.13;2.80;;;;;;;;;;6094347;29;20253;-80
2023/07/30 00:24:49;;;;;;;4.45;2.72;;;;;;;;;;6094197;29;20268;-80
2023/07/30 00:27:53;;;;;;;2.92;2.83;;;;;;;;;;6094182;29;20240;-80
2023/07/30 00:30:58;;;;;;;3.05;2.85;;;;;;;;;;6093168;29;20280;-80
2023/07/30 00:34:02;;;;;;;3.05;2.70;;;;;;;;;;6093055;29;20272;-80
2023/07/30 00:37:07;;;;;;;2.83;2.72;;;;;;;;;;6092751;29;20277;-80
2023/07/30 00:40:12;;;;;;;2.75;2.60;;;;;;;;;;6094213;29;20249;-80
2023/07/30 00:43:16;;;;;;;3.08;2.83;;;;;;;;;;6094173;29;20268;-80
2023/07/30 00:46:21;;;;;;;5.90;2.83;;;;;;;;;;6093772;29;20249;-80
2023/07/30 00:49:25;;;;;;;3.08;2.90;;;;;;;;;;6092866;29;20277;-80
2023/07/30 00:52:29;;;;;;;3.35;3.10;;;;;;;;;;6093623;29;20240;-80
2023/07/30 00:55:34;;;;;;;3.22;2.90;;;;;;;;;;6091897;29;20280;-80
2023/07/30 00:58:39;;;;;;;3.47;2.60;;;;;;;;;;6096091;29;20237;-78
2023/07/30 01:01:47;;;;;;;2.92;2.80;;;;;;;;;;6100683;29;20249;-80
2023/07/30 01:04:51;;;;;;;3.67;2.83;;;;;;;;;;6093328;29;20301;-81
2023/07/30 01:07:55;;;;;;;3.15;3.00;;;;;;;;;;6093311;29;20265;-81
2023/07/30 01:10:59;;;;;;;4.05;2.78;;;;;;;;;;6093676;29;20245;-80
2023/07/30 01:14:04;;;;;;;2.85;2.65;;;;;;;;;;6088220;29;20245;-79
2023/07/30 01:17:09;;;;;;;3.78;3.17;;;;;;;;;;6069935;29;20250;-80
2023/07/30 01:20:13;;;;;;;3.25;2.80;;;;;;;;;;6069905;29;20246;-81
2023/07/30 01:23:18;;;;;;;3.42;3.08;;;;;;;;;;6069959;29;20273;-79
2023/07/30 01:26:25;;;;;;;3.17;3.08;;;;;;;;;;6068713;29;20297;-79
2023/07/30 01:29:34;;;;;;;3.13;2.47;;;;;;;;;;6068647;29;20273;-80
2023/07/30 01:32:38;;;;;;;4.15;2.90;;;;;;;;;;6069632;29;20249;-80
2023/07/30 01:35:43;;;;;;;3.33;3.13;;;;;;;;;;6069101;29;20459;-80
2023/07/30 01:38:49;;;;;;;3.20;3.05;;;;;;;;;;6068642;29;20443;-80
2023/07/30 01:41:54;;;;;;;3.40;3.10;;;;;;;;;;6068754;29;20269;-80
2023/07/30 01:44:58;;;;;;;3.08;2.97;;;;;;;;;;6069708;29;20273;-80
2023/07/30 01:48:02;;;;;;;3.35;3.15;;;;;;;;;;6068459;29;20296;-81
2023/07/30 01:51:05;;;;;;;3.70;3.50;;;;;;;;;;6068522;29;20276;-80
2023/07/30 01:54:11;;;;;;;4.40;3.20;;;;;;;;;;6069241;29;20459;-81
2023/07/30 01:57:14;;;;;;;3.60;3.30;;;;;;;;;;6069711;29;20326;-79
2023/07/30 02:00:19;;;;;;;3.10;3.00;;;;;;;;;;6068387;29;20273;-81
2023/07/30 02:03:23;;;;;;;3.42;3.22;;;;;;;;;;6068470;29;20297;-80
2023/07/30 02:06:27;;;;;;;3.28;3.13;;;;;;;;;;6073427;29;20298;-79
2023/07/30 02:09:32;;;;;;;3.50;3.30;;;;;;;;;;6073233;29;20280;-80
2023/07/30 02:12:37;;;;;;;6.30;3.13;;;;;;;;;;6072698;29;20269;-79
2023/07/30 02:15:42;;;;;;;3.75;3.45;;;;;;;;;;6090718;29;20280;-79
2023/07/30 02:18:46;;;;;;;3.45;3.35;;;;;;;;;;6095901;29;20477;-81
2023/07/30 02:21:50;;;;;;;3.75;3.50;;;;;;;;;;6097567;29;20249;-80
2023/07/30 02:24:57;;;;;;;2.95;2.85;;;;;;;;;;6109144;29;20257;-79
2023/07/30 02:28:01;;;;;;;3.70;3.58;;;;;;;;;;6097315;29;20317;-80
2023/07/30 02:31:05;;;;;;;3.60;3.40;;;;;;;;;;6095781;29;20273;-80
2023/07/30 02:34:09;;;;;;;3.80;3.50;;;;;;;;;;6096933;29;20237;-80
2023/07/30 02:37:13;;;;;;;3.60;3.20;;;;;;;;;;6096942;29;20249;-80
2023/07/30 02:40:18;;;;;;;3.60;3.38;;;;;;;;;;6095605;29;20549;-80
2023/07/30 02:43:22;;;;;;;3.53;3.42;;;;;;;;;;6096504;29;20237;-80
2023/07/30 02:46:25;;;;;;;3.88;3.50;;;;;;;;;;6095089;29;20284;-80
2023/07/30 02:49:29;;;;;;;3.60;3.42;;;;;;;;;;6096619;29;20245;-80
2023/07/30 02:52:33;;;;;;;3.88;3.55;;;;;;;;;;6080126;29;20280;-81
2023/07/30 02:55:39;;;;;;;4.22;3.90;;;;;;;;;;6095163;29;20277;-78
2023/07/30 02:58:42;;;;;;;4.65;3.90;;;;;;;;;;6096301;29;20257;-78
2023/07/30 03:01:46;;;;;;;4.00;3.70;;;;;;;;;;6097048;29;20276;-80
2023/07/30 03:04:50;;;;;;;3.67;3.47;;;;;;;;;;6094910;29;20312;-80
2023/07/30 03:07:55;;;;;;;4.22;3.88;;;;;;;;;;6096682;29;20277;-80
2023/07/30 03:11:00;;;;;;;8.07;3.80;;;;;;;;;;6094907;29;20277;-80
2023/07/30 03:14:04;;;;;;;3.95;3.45;;;;;;;;;;6090517;29;20246;-80
2023/07/30 03:17:08;;;;;;;3.85;3.53;;;;;;;;;;6071803;29;20249;-79
2023/07/30 03:20:12;;;;;;;3.75;3.45;;;;;;;;;;6072783;29;20254;-80
2023/07/30 03:23:16;;;;;;;3.63;3.33;;;;;;;;;;6072594;29;20266;-79
2023/07/30 03:26:21;;;;;;;3.85;3.47;;;;;;;;;;6072071;29;20272;-80
2023/07/30 03:29:25;;;;;;;3.80;3.70;;;;;;;;;;6072638;29;20257;-80
2023/07/30 03:32:29;;;;;;;3.92;3.63;;;;;;;;;;6071156;29;20517;-80
2023/07/30 03:35:33;;;;;;;3.95;3.47;;;;;;;;;;6071281;29;20286;-80
2023/07/30 03:38:37;;;;;;;3.70;3.50;;;;;;;;;;6070843;29;20273;-80
2023/07/30 03:41:43;;;;;;;4.65;4.28;;;;;;;;;;6073958;29;20250;-79
2023/07/30 03:44:48;;;;;;;4.63;3.88;;;;;;;;;;6072375;29;20269;-80
2023/07/30 03:47:52;;;;;;;4.35;3.88;;;;;;;;;;6072531;29;20245;-79
2023/07/30 03:50:56;;;;;;;5.70;4.10;;;;;;;;;;6082070;29;20296;-80
2023/07/30 03:54:00;;;;;;;4.47;3.58;;;;;;;;;;6072893;29;20278;-81
2023/07/30 03:57:06;;;;;;;3.90;3.70;;;;;;;;;;6071928;29;20378;-80
2023/07/30 04:00:11;;;;;;;4.38;3.53;;;;;;;;;;6072113;29;20245;-79
2023/07/30 04:03:18;;;;;;;3.78;3.67;;;;;;;;;;6079944;29;20259;-80
2023/07/30 04:06:22;;;;;;;4.20;3.90;;;;;;;;;;6070988;29;20596;-79
2023/07/30 04:09:26;;;;;;;4.18;3.85;;;;;;;;;;6071751;29;20526;-80
2023/07/30 04:12:31;;;;;;;4.07;3.70;;;;;;;;;;6071229;29;20502;-80
2023/07/30 04:15:35;;;;;;;5.75;4.30;;;;;;;;;;6088308;29;20253;-80
2023/07/30 04:18:39;;;;;;;4.47;4.18;;;;;;;;;;6094802;29;20257;-80
2023/07/30 04:21:43;;;;;;;5.00;4.32;;;;;;;;;;6077327;29;20276;-80
2023/07/30 04:24:47;;;;;;;5.05;4.22;;;;;;;;;;6093223;29;20296;-80
2023/07/30 04:27:52;;;;;;;4.18;3.80;;;;;;;;;;6093048;29;20573;-79
2023/07/30 04:30:56;;;;;;;4.10;3.80;;;;;;;;;;6093449;29;20272;-80
2023/07/30 04:34:00;;;;;;;5.38;4.30;;;;;;;;;;6094039;29;20278;-80
2023/07/30 04:37:05;;;;;;;7.15;3.70;;;;;;;;;;6092905;29;20284;-80
2023/07/30 04:40:11;;;;;;;4.15;3.85;;;;;;;;;;6092879;29;20272;-80
2023/07/30 04:43:17;;;;;;;5.43;4.15;;;;;;;;;;6094262;29;20237;-80
2023/07/30 04:46:25;;;;;;;3.92;3.72;;;;;;;;;;6092551;29;20293;-80
2023/07/30 04:49:29;;;;;;;5.68;4.47;;;;;;;;;;6096034;29;20276;-80
2023/07/30 04:52:33;;;;;;;5.80;5.07;;;;;;;;;;6093685;29;20244;-80
2023/07/30 04:55:37;;;;;;;8.50;4.53;;;;;;;;;;6092590;29;20280;-80
2023/07/30 04:58:42;;;;;;;4.35;4.15;;;;;;;;;;6092817;29;20269;-80
2023/07/30 05:01:46;;;;;;;6.78;4.20;;;;;;;;;;6092577;29;20284;-80
2023/07/30 05:04:50;;;;;;;5.05;4.38;;;;;;;;;;6093302;29;20292;-80
2023/07/30 05:07:54;;;;;;;5.05;4.55;;;;;;;;;;6093259;29;20421;-80
2023/07/30 05:10:58;;;;;;;6.30;4.75;;;;;;;;;;6093841;29;20244;-80
2023/07/30 05:14:03;;;;;;;4.90;4.50;;;;;;;;;;6093141;29;20245;-79
2023/07/30 05:17:07;;;;;;;5.78;4.72;;;;;;;;;;6078759;29;20246;-80
2023/07/30 05:20:11;;;;;;;4.30;4.10;;;;;;;;;;6070190;29;20261;-80
2023/07/30 05:23:15;;;;;;;4.28;4.05;;;;;;;;;;6070990;29;20246;-80
2023/07/30 05:26:19;;;;;;;7.22;4.57;;;;;;;;;;6069673;29;20269;-81
2023/07/30 05:29:24;;;;;;;5.18;4.35;;;;;;;;;;6070169;29;20382;-80
2023/07/30 05:32:28;;;;;;;4.55;4.32;;;;;;;;;;6069614;29;20241;-80
2023/07/30 05:35:32;;;;;;;5.05;4.45;;;;;;;;;;6069511;29;20443;-80
2023/07/30 05:38:36;;;;;;;4.82;4.43;;;;;;;;;;6069893;29;20364;-81
2023/07/30 05:41:40;;;;;;;4.82;4.50;;;;;;;;;;6068249;29;20530;-80
2023/07/30 05:44:45;;;;;;;4.93;4.38;;;;;;;;;;6070134;29;20241;-80
2023/07/30 05:47:49;;;;;;;4.72;3.90;;;;;;;;;;6069435;29;20270;-80
2023/07/30 05:50:52;;;;;;;4.40;4.07;;;;;;;;;;6069461;29;20254;-80
2023/07/30 05:53:56;;;;;;;5.40;4.47;;;;;;;;;;6069780;29;20233;-80
2023/07/30 05:57:00;;;;;;;4.80;4.50;;;;;;;;;;6069447;29;20468;-80
2023/07/30 06:00:07;;;;;;;4.45;4.05;;;;;;;;;;6069709;29;20242;-80
2023/07/30 06:03:17;;;;;;;6.43;4.40;;;;;;;;;;6069338;29;20246;-80
2023/07/30 06:06:26;;;;;;;3.92;3.60;;;;;;;;;;6069001;29;20292;-80
2023/07/30 06:09:30;;;;;;;4.22;3.85;;;;;;;;;;6069739;29;20238;-80
2023/07/30 06:12:34;;;;;;;4.45;4.18;;;;;;;;;;6069453;29;20546;-80
2023/07/30 06:15:40;;;;;;;4.15;3.83;;;;;;;;;;6086322;29;20245;-80
2023/07/30 06:18:44;;;;;;;6.85;3.60;;;;;;;;;;6092841;29;20447;-79
2023/07/30 06:21:47;;;;;;;3.88;3.60;;;;;;;;;;6092247;29;20245;-80
2023/07/30 06:24:51;;;;;;;4.00;3.70;;;;;;;;;;6092403;29;20439;-81
2023/07/30 06:27:57;;;;;;;6.43;3.97;;;;;;;;;;6092391;29;20545;-80
2023/07/30 06:31:02;;;;;;;4.13;3.90;;;;;;;;;;6092240;29;20431;-80
2023/07/30 06:34:06;;;;;;;4.38;3.90;;;;;;;;;;6092023;29;20254;-80
2023/07/30 06:37:10;;;;;;;4.60;4.35;;;;;;;;;;6092030;29;20244;-80
2023/07/30 06:40:14;;;;;;;4.18;3.75;;;;;;;;;;6099823;29;20265;-79
2023/07/30 06:43:17;;;;;;;4.93;4.38;;;;;;;;;;6094367;29;20245;-80
2023/07/30 06:46:23;;;;;;;4.32;3.95;;;;;;;;;;6092332;29;20568;-80
2023/07/30 06:49:26;;;;;;;4.60;4.20;;;;;;;;;;6091934;29;20249;-80
2023/07/30 06:52:30;;;;;;;4.82;4.35;;;;;;;;;;6095195;29;20277;-81
2023/07/30 06:55:34;;;;;;;4.20;3.90;;;;;;;;;;6096438;29;20245;-80
2023/07/30 06:58:38;;;;;;;4.10;3.90;;;;;;;;;;6096559;29;20249;-80
2023/07/30 07:01:44;;;;;;;5.03;4.63;;;;;;;;;;6096786;29;20245;-79
2023/07/30 07:04:48;;;;;;;5.35;4.70;;;;;;;;;;6095967;29;20292;-80
2023/07/30 07:07:52;;;;;;;4.82;4.38;;;;;;;;;;6096005;29;20268;-80
2023/07/30 07:10:56;;;;;;;4.97;4.55;;;;;;;;;;6096309;29;20253;-80
2023/07/30 07:14:00;;;;;;;4.88;4.68;;;;;;;;;;6091699;29;20246;-80
2023/07/30 07:17:06;;;;;;;7.03;5.13;;;;;;;;;;6076838;29;20249;-79
2023/07/30 07:20:11;;;;;;;4.75;4.45;;;;;;;;;;6077426;29;20424;-80
2023/07/30 07:23:15;;;;;;;4.78;4.50;;;;;;;;;;6073254;29;20530;-80
2023/07/30 07:26:18;;;;;;;5.20;4.80;;;;;;;;;;6071432;29;20368;-80
2023/07/30 07:29:22;;;;;;;5.78;4.45;;;;;;;;;;6072855;29;20440;-80
2023/07/30 07:32:28;;;;;;;6.20;4.53;;;;;;;;;;6072464;29;20242;-80
2023/07/30 07:35:31;;;;;;;5.47;5.18;;;;;;;;;;6072766;29;20246;-80
2023/07/30 07:38:35;;;;;;;4.93;4.43;;;;;;;;;;6071630;29;20409;-80
2023/07/30 07:41:39;;;;;;;4.80;4.45;;;;;;;;;;6072602;29;20283;-80
2023/07/30 07:44:45;;;;;;;5.22;4.70;;;;;;;;;;6073302;29;20408;-80
2023/07/30 07:47:51;;;;;;;4.55;4.35;;;;;;;;;;6072108;29;20277;-80
2023/07/30 07:50:55;;;;;;;5.65;4.97;;;;;;;;;;6072361;29;20238;-80
2023/07/30 07:53:58;;;;;;;5.72;4.03;;;;;;;;;;6071872;29;20242;-80
2023/07/30 07:57:02;;;;;;;5.13;4.53;;;;;;;;;;6072063;29;20279;-80
2023/07/30 08:00:08;;;;;;;4.45;4.15;;;;;;;;;;6071585;29;20248;-80
2023/07/30 08:03:18;;;;;;;4.85;4.45;;;;;;;;;;6055838;29;20288;-80
2023/07/30 08:06:22;;;;;;;4.18;3.97;;;;;;;;;;6082062;29;20289;-80
2023/07/30 08:09:26;;;;;;;5.07;4.47;;;;;;;;;;6073865;29;20269;-80
2023/07/30 08:12:32;;;;;;;4.53;4.13;;;;;;;;;;6071386;29;20344;-80
2023/07/30 08:15:36;;;;;;;4.40;4.20;;;;;;;;;;6088170;29;20249;-80
2023/07/30 08:18:42;;;;;;;5.75;4.85;;;;;;;;;;6094300;29;20257;-80
2023/07/30 08:21:45;;;;;;;4.18;3.88;;;;;;;;;;6094143;29;20241;-80
2023/07/30 08:24:49;;;;;;;4.20;4.00;;;;;;;;;;6094161;29;20249;-80
2023/07/30 08:27:53;;;;;;;4.72;4.43;;;;;;;;;;6094413;29;20269;-80
2023/07/30 08:31:01;;;;;;;4.30;4.10;;;;;;;;;;6094425;29;20245;-80
2023/07/30 08:34:06;;;;;;;4.15;4.00;;;;;;;;;;6093927;29;20246;-80
2023/07/30 08:37:10;;;;;;;4.70;4.45;;;;;;;;;;6093777;29;20254;-80
2023/07/30 08:40:15;;;;;;;4.25;4.07;;;;;;;;;;6093956;29;20253;-80
2023/07/30 08:43:20;;;;;;;4.68;4.35;;;;;;;;;;6094195;29;20245;-80
2023/07/30 08:46:24;;;;;;;4.70;4.30;;;;;;;;;;6093677;29;20241;-80
2023/07/30 08:49:32;;;;;;;4.43;4.13;;;;;;;;;;6094101;29;20448;-81
2023/07/30 08:52:37;;;;;;;7.00;4.55;;;;;;;;;;6093758;29;20545;-81
2023/07/30 08:55:41;;;;;;;3.78;3.58;;;;;;;;;;6094030;29;20400;-81
2023/07/30 08:58:45;;;;;;;3.92;3.80;;;;;;;;;;6094127;29;20245;-80
2023/07/30 09:01:52;;;;;;;8.27;4.45;;;;;;;;;;6093740;29;20265;-80
2023/07/30 09:04:59;;;;;;;3.83;3.60;;;;;;;;;;6092096;29;20469;-81
2023/07/30 09:08:05;;;;;;;3.75;3.53;;;;;;;;;;6092054;29;20309;-81
2023/07/30 09:11:09;;;;;;;3.90;3.60;;;;;;;;;;6093715;29;20241;-80
2023/07/30 09:14:13;;;;;;;3.95;3.65;;;;;;;;;;6086382;29;20370;-81
2023/07/30 09:17:18;;;;;;;3.72;3.42;;;;;;;;;;6069930;29;20241;-81
2023/07/30 09:20:23;;;;;;;3.50;3.40;;;;;;;;;;6070413;29;20249;-81
2023/07/30 09:23:27;;;;;;;3.45;3.35;;;;;;;;;;6070406;29;20237;-81
2023/07/30 09:26:31;;;;;;;3.72;3.63;;;;;;;;;;6069715;29;20250;-81
2023/07/30 09:29:35;;;;;;;3.88;3.78;;;;;;;;;;6071566;29;20289;-79
2023/07/30 09:32:39;;;;;;;3.55;3.35;;;;;;;;;;6081684;29;20198;-81
2023/07/30 09:35:45;;;;;;;3.40;3.20;;;;;;;;;;6070065;29;20241;-81
2023/07/30 09:38:49;;;;;;;3.60;3.40;;;;;;;;;;6069929;29;20241;-81
2023/07/30 09:41:59;;;;;;;3.60;3.40;;;;;;;;;;6072228;29;20429;-80
2023/07/30 09:45:03;;;;;;;3.65;3.45;;;;;;;;;;6068778;29;20277;-80
2023/07/30 09:48:07;;;;;;;3.40;3.22;;;;;;;;;;6069350;29;20518;-80
2023/07/30 09:51:12;;;;;;;3.42;3.30;;;;;;;;;;6068532;29;20281;-81
2023/07/30 09:54:16;;;;;;;4.68;3.80;;;;;;;;;;6069827;29;20241;-81
2023/07/30 09:57:20;;;;;;;4.53;3.85;;;;;;;;;;6069889;29;20245;-82
2023/07/30 10:00:24;;;;;;;3.85;3.65;;;;;;;;;;6069422;29;20250;-81
2023/07/30 10:03:28;;;;;;;3.70;3.60;;;;;;;;;;6069689;29;20245;-81
2023/07/30 10:06:36;;;;;;;3.78;3.67;;;;;;;;;;6071339;29;20288;-81
2023/07/30 10:09:43;;;;;;;3.78;3.67;;;;;;;;;;6069484;29;20270;-81
2023/07/30 10:12:48;;;;;;;3.50;3.40;;;;;;;;;;6069105;29;20250;-80
2023/07/30 10:15:53;;;;;;;3.92;3.70;;;;;;;;;;6087943;29;20241;-81
2023/07/30 10:18:58;;;;;;;4.90;4.68;;;;;;;;;;6092616;29;20245;-81
2023/07/30 10:22:21;;;;;;;3.60;3.50;;;;;;;;;;6091505;29;20276;-81
2023/07/30 10:25:29;;;;;;;3.30;3.30;;;;;;;;;;6092962;29;20253;-81
2023/07/30 10:28:34;;;;;;;3.63;3.53;;;;;;;;;;6097077;29;20280;-80
2023/07/30 10:31:41;;;;;;;3.63;3.40;;;;;;;;;;6097129;29;20518;-80
2023/07/30 10:34:46;;;;;;;6.60;4.25;;;;;;;;;;6097086;29;20502;-82
2023/07/30 10:37:52;;;;;;;3.72;3.60;;;;;;;;;;6096724;29;20240;-80
2023/07/30 10:41:04;;;;;;;4.00;3.80;;;;;;;;;;6097418;29;20261;-82
2023/07/30 10:44:08;;;;;;;5.75;4.00;;;;;;;;;;6096041;29;20537;-81
2023/07/30 10:47:12;;;;;;;4.35;4.07;;;;;;;;;;6095832;29;20280;-81
2023/07/30 10:50:33;;;;;;;4.22;4.00;;;;;;;;;;6096566;29;20356;-81
2023/07/30 10:53:39;;;;;;;4.18;3.97;;;;;;;;;;6096683;29;20244;-81
2023/07/30 10:56:44;;;;;;;4.40;4.25;;;;;;;;;;6108080;29;20230;-80
2023/07/30 10:59:48;;;;;;;4.55;4.18;;;;;;;;;;6101028;29;20245;-80
2023/07/30 11:02:54;;;;;;;4.10;4.10;;;;;;;;;;6096748;29;20244;-81
2023/07/30 11:05:58;;;;;;;3.95;3.65;;;;;;;;;;6095954;29;20300;-80
2023/07/30 11:09:04;;;;;;;4.10;4.00;;;;;;;;;;6096081;29;20273;-81
2023/07/30 11:12:10;;;;;;;4.10;4.00;;;;;;;;;;6096278;29;20509;-80
2023/07/30 11:15:13;;;;;;;3.65;3.55;;;;;;;;;;6081791;29;20241;-82
2023/07/30 11:18:17;;;;;;;4.63;4.25;;;;;;;;;;6072779;29;20253;-81
2023/07/30 11:21:21;;;;;;;4.20;4.10;;;;;;;;;;6072903;29;20241;-81
2023/07/30 11:24:36;;;;;;;4.80;4.40;;;;;;;;;;6073125;29;20250;-80
2023/07/30 11:27:46;;;;;;;4.07;3.97;;;;;;;;;;6072942;29;20242;-81
2023/07/30 11:30:51;;;;;;;4.43;4.13;;;;;;;;;;6072524;29;20269;-80
2023/07/30 11:33:55;;;;;;;4.05;3.85;;;;;;;;;;6072860;29;20246;-80
2023/07/30 11:36:59;;;;;;;4.40;4.20;;;;;;;;;;6071773;29;20294;-80
2023/07/30 11:40:06;;;;;;;5.25;4.47;;;;;;;;;;6072134;29;20249;-80
2023/07/30 11:43:10;;;;;;;4.68;4.25;;;;;;;;;;6072128;29;20247;-80
2023/07/30 11:46:16;;;;;;;4.15;4.00;;;;;;;;;;6072075;29;20246;-80
2023/07/30 11:49:21;;;;;;;4.40;4.25;;;;;;;;;;6072587;29;20550;-81
2023/07/30 11:52:25;;;;;;;4.45;4.10;;;;;;;;;;6083000;29;20237;-80
2023/07/30 11:55:39;;;;;;;4.70;4.40;;;;;;;;;;6086142;29;20478;-81
2023/07/30 11:58:43;;;;;;;5.18;4.78;;;;;;;;;;6086096;29;20206;-80
2023/07/30 12:01:47;;;;;;;4.78;4.57;;;;;;;;;;6073451;29;20241;-80
2023/07/30 12:04:51;;;;;;;4.57;4.38;;;;;;;;;;6072711;29;20289;-81
2023/07/30 12:08:15;;;;;;;4.95;4.65;;;;;;;;;;6075172;29;20245;-80
2023/07/30 12:11:20;;;;;;;5.18;4.88;;;;;;;;;;6073450;29;20266;-81
2023/07/30 12:14:29;;;;;;;4.82;4.60;;;;;;;;;;6079780;29;20248;-81
2023/07/30 12:17:34;;;;;;;5.45;5.05;;;;;;;;;;6095094;29;20262;-81
2023/07/30 12:20:38;;;;;;;4.78;4.50;;;;;;;;;;6100758;29;20237;-80
2023/07/30 12:23:43;;;;;;;5.32;5.00;;;;;;;;;;6101542;29;20241;-80
2023/07/30 12:26:48;;;;;;;5.40;5.03;;;;;;;;;;6097308;29;20252;-81
2023/07/30 12:29:52;;;;;;;5.18;4.70;;;;;;;;;;6094840;29;20269;-80
2023/07/30 12:32:55;;;;;;;5.03;4.82;;;;;;;;;;6094456;29;20245;-80
2023/07/30 12:35:59;;;;;;;5.63;4.57;;;;;;;;;;6094666;29;20249;-80
2023/07/30 12:39:03;;;;;;;4.88;4.68;;;;;;;;;;6094603;29;20252;-79
2023/07/30 12:42:08;;;;;;;3.45;3.25;;;;;;;;;;6094354;29;20252;-80
2023/07/30 12:45:12;;;;;;;4.03;3.80;;;;;;;;;;6094377;29;20240;-79
2023/07/30 12:48:16;;;;;;;4.43;2.85;;;;;;;;;;6094018;29;20249;-80
2023/07/30 12:51:20;;;;;;;2.65;2.65;;;;;;;;;;6093938;29;20276;-78
2023/07/30 12:54:24;;;;;;;2.53;2.50;;;;;;;;;;6094015;29;20539;-79
2023/07/30 12:57:29;;;;;;;6.68;4.00;;;;;;;;;;6093459;29;20250;-79
2023/07/30 13:00:35;;;;;;;11.32;4.03;;;;;;;;;;6093778;29;20425;-80
2023/07/30 13:03:38;;;;;;;5.53;3.88;;;;;;;;;;6093826;29;20328;-80
2023/07/30 13:06:43;;;;;;;6.18;3.40;;;;;;;;;;6093747;29;20301;-80
2023/07/30 13:09:47;;;;;;;6.55;3.60;;;;;;;;;;6093901;29;20252;-79
2023/07/30 13:12:52;;;;;;;3.90;3.58;;;;;;;;;;6093667;29;20241;-80
2023/07/30 13:15:57;;;;;;;3.97;3.65;;;;;;;;;;6074113;29;20262;-81
2023/07/30 13:19:01;;;;;;;3.60;3.38;;;;;;;;;;6070744;29;20470;-81
2023/07/30 13:22:06;;;;;;;8.50;4.70;;;;;;;;;;6070486;29;20433;-81
2023/07/30 13:25:10;;;;;;;12.45;5.25;;;;;;;;;;6070254;29;20242;-81
2023/07/30 13:28:15;;;;;;;6.35;4.20;;;;;;;;;;6070533;29;20245;-79
2023/07/30 13:31:19;;;;;;;3.03;2.83;;;;;;;;;;6070021;29;20269;-81
2023/07/30 13:34:23;;;;;;;3.33;3.05;;;;;;;;;;6070265;29;20254;-81
2023/07/30 13:37:27;;;;;;;4.97;4.10;;;;;;;;;;6070327;29;20242;-80
2023/07/30 13:40:31;;;;;;;5.15;4.68;;;;;;;;;;6069952;29;20249;-81
2023/07/30 13:43:36;;;;;;;5.07;4.68;;;;;;;;;;6070149;29;20460;-79
2023/07/30 13:46:40;;;;;;;8.93;4.10;;;;;;;;;;6083593;29;20202;-82
2023/07/30 13:49:44;;;;;;;4.30;4.10;;;;;;;;;;6070631;29;20242;-80
2023/07/30 13:52:48;;;;;;;4.63;4.32;;;;;;;;;;6069585;29;20279;-81
2023/07/30 13:55:52;;;;;;;4.78;3.80;;;;;;;;;;6068862;29;20282;-81
2023/07/30 13:58:57;;;;;;;3.08;3.00;;;;;;;;;;6070367;29;20249;-80
2023/07/30 14:02:01;;;;;;;3.20;3.10;;;;;;;;;;6069330;29;20249;-82
2023/07/30 14:05:06;;;;;;;3.20;3.10;;;;;;;;;;6069439;29;20300;-81
2023/07/30 14:08:09;;;;;;;3.33;3.22;;;;;;;;;;6068173;29;20463;-81
2023/07/30 14:11:14;;;;;;;2.80;2.80;;;;;;;;;;6069766;29;20458;-80
2023/07/30 14:14:21;;;;;;;3.58;2.80;;;;;;;;;;6076327;29;20249;-82
2023/07/30 14:17:25;;;;;;;2.95;2.85;;;;;;;;;;6092969;29;20245;-81
2023/07/30 14:20:29;;;;;;;2.92;2.83;;;;;;;;;;6092767;29;20241;-80
2023/07/30 14:23:32;;;;;;;2.70;2.70;;;;;;;;;;6092761;29;20249;-81
2023/07/30 14:26:36;;;;;;;2.63;2.53;;;;;;;;;;6092457;29;20245;-80
2023/07/30 14:29:42;;;;;;;3.25;3.15;;;;;;;;;;6092995;29;20249;-81
2023/07/30 14:32:45;;;;;;;2.33;2.22;;;;;;;;;;6093255;29;20304;-81
2023/07/30 14:35:49;;;;;;;2.72;2.53;;;;;;;;;;6107525;29;20234;-79
2023/07/30 14:38:53;;;;;;;2.97;2.70;;;;;;;;;;6097853;29;20252;-80
2023/07/30 14:41:57;;;;;;;4.72;2.83;;;;;;;;;;6092699;29;20557;-81
2023/07/30 14:45:02;;;;;;;3.27;2.97;;;;;;;;;;6091057;29;20474;-81
2023/07/30 14:48:06;;;;;;;3.00;2.80;;;;;;;;;;6093115;29;20463;-80
2023/07/30 14:51:10;;;;;;;3.40;2.92;;;;;;;;;;6093800;29;20268;-80
2023/07/30 14:54:14;;;;;;;3.13;2.92;;;;;;;;;;6092760;29;20253;-80
2023/07/30 14:57:18;;;;;;;3.50;2.83;;;;;;;;;;6092538;29;20241;-81
2023/07/30 15:00:26;;;;;;;4.05;3.10;;;;;;;;;;6098702;29;20412;-80
2023/07/30 15:03:30;;;;;;;3.30;3.00;;;;;;;;;;6100021;29;20244;-81
2023/07/30 15:06:34;;;;;;;5.85;3.50;;;;;;;;;;6096965;29;20296;-81
2023/07/30 15:09:38;;;;;;;3.22;3.13;;;;;;;;;;6098768;29;20241;-80
2023/07/30 15:12:42;;;;;;;3.67;3.38;;;;;;;;;;6094155;29;20272;-80
2023/07/30 15:15:47;;;;;;;4.70;4.28;;;;;;;;;;6077969;29;20257;-81
2023/07/30 15:18:51;;;;;;;3.55;3.42;;;;;;;;;;6073137;29;20249;-81
2023/07/30 15:21:55;;;;;;;3.67;3.38;;;;;;;;;;6072959;29;20254;-80
2023/07/30 15:24:58;;;;;;;3.65;3.47;;;;;;;;;;6072997;29;20254;-82
2023/07/30 15:28:03;;;;;;;3.80;3.70;;;;;;;;;;6073117;29;20478;-81
2023/07/30 15:31:08;;;;;;;3.70;3.60;;;;;;;;;;6071719;29;20381;-81
2023/07/30 15:34:13;;;;;;;4.57;4.18;;;;;;;;;;6073011;29;20249;-81
2023/07/30 15:37:17;;;;;;;5.50;4.50;;;;;;;;;;6072876;29;20483;-81
2023/07/30 15:40:21;;;;;;;4.32;4.13;;;;;;;;;;6072388;29;20242;-80
2023/07/30 15:43:25;;;;;;;4.93;4.57;;;;;;;;;;6072347;29;20269;-80
2023/07/30 15:46:30;;;;;;;5.10;4.80;;;;;;;;;;6072535;29;20253;-81
2023/07/30 15:49:34;;;;;;;5.65;5.38;;;;;;;;;;6072112;29;20514;-80
2023/07/30 15:52:38;;;;;;;5.45;5.20;;;;;;;;;;6071956;29;20269;-81
2023/07/30 15:55:42;;;;;;;5.82;5.50;;;;;;;;;;6072387;29;20241;-81
2023/07/30 15:58:45;;;;;;;5.82;5.40;;;;;;;;;;6072443;29;20245;-81
2023/07/30 16:01:51;;;;;;;6.60;5.55;;;;;;;;;;6071836;29;20345;-81
2023/07/30 16:04:54;;;;;;;5.32;5.00;;;;;;;;;;6072023;29;20313;-82
2023/07/30 16:07:58;;;;;;;7.28;6.68;;;;;;;;;;6070848;29;20269;-80
2023/07/30 16:11:03;;;;;;;9.57;8.65;;;;;;;;;;6072153;29;20251;-82
2023/07/30 16:14:07;;;;;;;9.23;7.00;;;;;;;;;;6077379;29;20265;-81
2023/07/30 16:17:13;;;;;;;7.82;7.13;;;;;;;;;;6094845;29;20245;-81
2023/07/30 16:20:18;;;;;;;8.75;7.97;;;;;;;;;;6094934;29;20248;-81
2023/07/30 16:23:21;;;;;;;7.47;6.72;;;;;;;;;;6094541;29;20249;-80
2023/07/30 16:26:25;;;;;;;5.53;5.25;;;;;;;;;;6096407;29;20249;-80
2023/07/30 16:29:29;;;;;;;5.50;5.28;;;;;;;;;;6097180;29;20241;-80
2023/07/30 16:32:34;;;;;;;5.78;5.47;;;;;;;;;;6099069;29;20271;-80
2023/07/30 16:35:38;;;;;;;5.90;5.40;;;;;;;;;;6099442;29;20439;-83
2023/07/30 16:38:43;;;;;;;5.85;5.38;;;;;;;;;;6095638;29;20245;-81
2023/07/30 16:41:47;;;;;;;5.60;5.25;;;;;;;;;;6094302;29;20249;-81
2023/07/30 16:44:50;;;;;;;6.18;5.68;;;;;;;;;;6094249;29;20273;-81
2023/07/30 16:47:59;;;;;;;6.35;5.78;;;;;;;;;;6094302;29;20241;-81
2023/07/30 16:51:03;;;;;;;5.85;5.35;;;;;;;;;;6093994;29;20261;-82
2023/07/30 16:54:09;;;;;;;5.50;5.15;;;;;;;;;;6094409;29;20359;-81
2023/07/30 16:57:13;;;;;;;5.15;4.85;;;;;;;;;;6093796;29;20253;-81
2023/07/30 17:00:17;;;;;;;5.32;5.03;;;;;;;;;;6096996;29;20238;-81
2023/07/30 17:03:22;;;;;;;5.18;4.88;;;;;;;;;;6096371;29;20493;-81
2023/07/30 17:06:26;;;;;;;5.38;5.18;;;;;;;;;;6093801;29;20296;-80
2023/07/30 17:09:30;;;;;;;5.72;5.32;;;;;;;;;;6094837;29;20244;-81
2023/07/30 17:12:33;;;;;;;7.05;5.50;;;;;;;;;;6093645;29;20264;-81
2023/07/30 17:15:37;;;;;;;6.07;5.30;;;;;;;;;;6084585;29;20285;-82
2023/07/30 17:18:42;;;;;;;6.32;5.85;;;;;;;;;;6070623;29;20241;-81
2023/07/30 17:21:46;;;;;;;5.40;5.13;;;;;;;;;;6070435;29;20245;-81
2023/07/30 17:24:53;;;;;;;4.97;4.78;;;;;;;;;;6084744;29;20408;-81
2023/07/30 17:27:56;;;;;;;5.55;5.10;;;;;;;;;;6069302;29;20277;-81
2023/07/30 17:31:01;;;;;;;5.35;4.85;;;;;;;;;;6069214;29;20278;-80
2023/07/30 17:34:06;;;;;;;5.38;4.90;;;;;;;;;;6070169;29;20269;-81
2023/07/30 17:37:10;;;;;;;4.78;4.50;;;;;;;;;;6069108;29;20242;-81
2023/07/30 17:40:14;;;;;;;4.47;4.38;;;;;;;;;;6069902;29;20245;-81
2023/07/30 17:43:18;;;;;;;2.55;2.45;;;;;;;;;;6070129;29;20250;-81
2023/07/30 17:46:21;;;;;;;2.60;2.50;;;;;;;;;;6069722;29;20250;-81
2023/07/30 17:49:28;;;;;;;2.55;2.55;;;;;;;;;;6070234;29;20537;-81
2023/07/30 17:52:32;;;;;;;3.08;2.97;;;;;;;;;;6069905;29;20246;-81
2023/07/30 17:55:36;;;;;;;2.67;2.50;;;;;;;;;;6069587;29;20242;-81
2023/07/30 17:58:40;;;;;;;2.53;2.42;;;;;;;;;;6077134;29;20246;-82
2023/07/30 18:01:44;;;;;;;2.10;2.10;;;;;;;;;;6073733;29;20250;-81
2023/07/30 18:04:49;;;;;;;1.88;1.77;;;;;;;;;;6069540;29;20544;-81
2023/07/30 18:07:53;;;;;;;1.83;1.75;;;;;;;;;;6052924;29;20453;-81
2023/07/30 18:10:57;;;;;;;3.85;1.75;;;;;;;;;;6069948;29;20253;-80
2023/07/30 18:14:00;;;;;;;1.50;1.50;;;;;;;;;;6078460;29;20264;-80
2023/07/30 18:17:05;;;;;;;3.20;2.08;;;;;;;;;;6092470;29;20245;-80
2023/07/30 18:20:11;;;;;;;2.80;2.80;;;;;;;;;;6091383;29;20268;-80
2023/07/30 18:23:15;;;;;;;3.72;3.58;;;;;;;;;;6092790;29;20249;-81
2023/07/30 18:26:19;;;;;;;3.50;3.40;;;;;;;;;;6092508;29;20248;-81